sensor_id;sensor_type;location;lat;lon;timestamp;P1;durP1;ratioP1;P2;durP2;ratioP2
75340;SDS011;64931;47.562;18.920;2022-12-07T00:01:09;8.10;;;4.30;;
75340;SDS011;64931;47.562;18.920;2022-12-07T00:03:39;9.90;;;5.90;;
75340;SDS011;64931;47.562;18.920;2022-12-07T00:06:06;11.50;;;5.30;;
75340;SDS011;64931;47.562;18.920;2022-12-07T00:08:33;12.20;;;7.60;;
75340;SDS011;64931;47.562;18.920;2022-12-07T00:11:09;11.10;;;6.20;;
75340;SDS011;64931;47.562;18.920;2022-12-07T00:13:37;9.80;;;5.10;;
75340;SDS011;64931;47.562;18.920;2022-12-07T00:16:04;8.70;;;5.10;;
75340;SDS011;64931;47.562;18.920;2022-12-07T00:18:31;6.90;;;3.60;;
75340;SDS011;64931;47.562;18.920;2022-12-07T00:21:04;9.70;;;4.60;;
75340;SDS011;64931;47.562;18.920;2022-12-07T00:23:31;7.60;;;4.20;;
75340;SDS011;64931;47.562;18.920;2022-12-07T00:26:02;8.00;;;3.90;;
75340;SDS011;64931;47.562;18.920;2022-12-07T00:28:31;6.80;;;3.50;;
75340;SDS011;64931;47.562;18.920;2022-12-07T00:31:08;5.50;;;3.30;;
75340;SDS011;64931;47.562;18.920;2022-12-07T00:33:35;5.80;;;3.40;;
75340;SDS011;64931;47.562;18.920;2022-12-07T00:36:03;9.80;;;5.60;;
75340;SDS011;64931;47.562;18.920;2022-12-07T00:38:32;8.20;;;4.10;;
75340;SDS011;64931;47.562;18.920;2022-12-07T00:41:00;10.40;;;5.60;;
75340;SDS011;64931;47.562;18.920;2022-12-07T00:43:27;8.90;;;4.50;;
75340;SDS011;64931;47.562;18.920;2022-12-07T00:45:52;6.40;;;3.60;;
75340;SDS011;64931;47.562;18.920;2022-12-07T00:48:18;5.60;;;3.10;;
75340;SDS011;64931;47.562;18.920;2022-12-07T00:50:44;5.80;;;2.70;;
75340;SDS011;64931;47.562;18.920;2022-12-07T00:53:09;4.40;;;2.30;;
75340;SDS011;64931;47.562;18.920;2022-12-07T00:55:35;8.70;;;4.50;;
75340;SDS011;64931;47.562;18.920;2022-12-07T00:58:01;9.00;;;4.90;;
75340;SDS011;64931;47.562;18.920;2022-12-07T01:00:27;10.00;;;5.30;;
75340;SDS011;64931;47.562;18.920;2022-12-07T01:02:52;9.10;;;5.00;;
75340;SDS011;64931;47.562;18.920;2022-12-07T01:05:17;9.90;;;5.20;;
75340;SDS011;64931;47.562;18.920;2022-12-07T01:07:43;8.50;;;4.60;;
75340;SDS011;64931;47.562;18.920;2022-12-07T01:10:09;7.80;;;4.20;;
75340;SDS011;64931;47.562;18.920;2022-12-07T01:12:34;6.20;;;3.60;;
75340;SDS011;64931;47.562;18.920;2022-12-07T01:15:00;5.80;;;2.90;;
75340;SDS011;64931;47.562;18.920;2022-12-07T01:17:25;10.20;;;4.70;;
75340;SDS011;64931;47.562;18.920;2022-12-07T01:19:51;8.40;;;4.70;;
75340;SDS011;64931;47.562;18.920;2022-12-07T01:22:16;15.20;;;8.40;;
75340;SDS011;64931;47.562;18.920;2022-12-07T01:24:41;10.30;;;5.60;;
75340;SDS011;64931;47.562;18.920;2022-12-07T01:27:07;8.80;;;4.90;;
75340;SDS011;64931;47.562;18.920;2022-12-07T01:29:32;10.20;;;5.20;;
75340;SDS011;64931;47.562;18.920;2022-12-07T01:31:58;8.30;;;4.10;;
75340;SDS011;64931;47.562;18.920;2022-12-07T01:34:23;7.50;;;3.10;;
75340;SDS011;64931;47.562;18.920;2022-12-07T01:36:48;9.10;;;4.90;;
75340;SDS011;64931;47.562;18.920;2022-12-07T01:39:14;8.50;;;5.10;;
75340;SDS011;64931;47.562;18.920;2022-12-07T01:41:40;11.00;;;7.00;;
75340;SDS011;64931;47.562;18.920;2022-12-07T01:46:54;11.80;;;6.90;;
75340;SDS011;64931;47.562;18.920;2022-12-07T01:54:40;11.20;;;5.50;;
75340;SDS011;64931;47.562;18.920;2022-12-07T01:57:07;12.10;;;7.20;;
75340;SDS011;64931;47.562;18.920;2022-12-07T01:59:33;9.10;;;5.40;;
75340;SDS011;64931;47.562;18.920;2022-12-07T02:01:58;8.80;;;4.90;;
75340;SDS011;64931;47.562;18.920;2022-12-07T02:04:26;10.10;;;5.10;;
75340;SDS011;64931;47.562;18.920;2022-12-07T02:06:52;9.00;;;4.80;;
75340;SDS011;64931;47.562;18.920;2022-12-07T02:09:18;8.20;;;4.30;;
75340;SDS011;64931;47.562;18.920;2022-12-07T02:11:44;9.70;;;5.60;;
75340;SDS011;64931;47.562;18.920;2022-12-07T02:14:09;12.00;;;5.70;;
75340;SDS011;64931;47.562;18.920;2022-12-07T02:16:42;11.40;;;6.20;;
75340;SDS011;64931;47.562;18.920;2022-12-07T02:30:40;8.90;;;5.10;;
75340;SDS011;64931;47.562;18.920;2022-12-07T02:33:13;9.30;;;5.20;;
75340;SDS011;64931;47.562;18.920;2022-12-07T02:35:42;8.60;;;5.10;;
75340;SDS011;64931;47.562;18.920;2022-12-07T02:43:31;9.40;;;5.30;;
75340;SDS011;64931;47.562;18.920;2022-12-07T02:46:01;8.50;;;4.20;;
75340;SDS011;64931;47.562;18.920;2022-12-07T02:48:31;10.70;;;6.40;;
75340;SDS011;64931;47.562;18.920;2022-12-07T02:50:58;10.70;;;6.10;;
75340;SDS011;64931;47.562;18.920;2022-12-07T02:55:54;9.10;;;5.30;;
75340;SDS011;64931;47.562;18.920;2022-12-07T02:58:23;10.40;;;6.20;;
75340;SDS011;64931;47.562;18.920;2022-12-07T03:01:26;13.00;;;7.90;;
75340;SDS011;64931;47.562;18.920;2022-12-07T03:03:52;11.90;;;7.50;;
75340;SDS011;64931;47.562;18.920;2022-12-07T03:06:27;11.00;;;6.40;;
75340;SDS011;64931;47.562;18.920;2022-12-07T03:08:57;11.50;;;6.80;;
75340;SDS011;64931;47.562;18.920;2022-12-07T03:11:46;11.70;;;7.70;;
75340;SDS011;64931;47.562;18.920;2022-12-07T03:14:52;13.20;;;7.30;;
75340;SDS011;64931;47.562;18.920;2022-12-07T03:17:14;10.50;;;6.20;;
75340;SDS011;64931;47.562;18.920;2022-12-07T03:19:42;12.20;;;7.50;;
75340;SDS011;64931;47.562;18.920;2022-12-07T03:22:10;14.60;;;7.20;;
75340;SDS011;64931;47.562;18.920;2022-12-07T03:24:42;9.90;;;5.60;;
75340;SDS011;64931;47.562;18.920;2022-12-07T03:27:15;11.00;;;6.30;;
75340;SDS011;64931;47.562;18.920;2022-12-07T03:29:45;12.10;;;6.50;;
75340;SDS011;64931;47.562;18.920;2022-12-07T03:35:05;11.10;;;6.90;;
75340;SDS011;64931;47.562;18.920;2022-12-07T03:42:53;14.60;;;8.40;;
75340;SDS011;64931;47.562;18.920;2022-12-07T03:45:21;13.60;;;7.80;;
75340;SDS011;64931;47.562;18.920;2022-12-07T03:48:00;12.80;;;7.90;;
75340;SDS011;64931;47.562;18.920;2022-12-07T03:50:35;13.00;;;7.70;;
75340;SDS011;64931;47.562;18.920;2022-12-07T03:53:18;11.20;;;7.10;;
75340;SDS011;64931;47.562;18.920;2022-12-07T03:55:50;11.30;;;6.20;;
75340;SDS011;64931;47.562;18.920;2022-12-07T03:58:17;10.60;;;6.20;;
75340;SDS011;64931;47.562;18.920;2022-12-07T04:03:10;8.50;;;5.20;;
75340;SDS011;64931;47.562;18.920;2022-12-07T04:05:35;11.00;;;6.00;;
75340;SDS011;64931;47.562;18.920;2022-12-07T04:08:02;9.60;;;5.80;;
75340;SDS011;64931;47.562;18.920;2022-12-07T04:10:27;11.30;;;6.30;;
75340;SDS011;64931;47.562;18.920;2022-12-07T04:12:53;10.50;;;6.60;;
75340;SDS011;64931;47.562;18.920;2022-12-07T04:15:18;9.70;;;5.40;;
75340;SDS011;64931;47.562;18.920;2022-12-07T04:17:44;8.60;;;4.50;;
75340;SDS011;64931;47.562;18.920;2022-12-07T04:20:09;8.70;;;4.60;;
75340;SDS011;64931;47.562;18.920;2022-12-07T04:22:35;8.20;;;4.10;;
75340;SDS011;64931;47.562;18.920;2022-12-07T04:25:01;7.90;;;3.90;;
75340;SDS011;64931;47.562;18.920;2022-12-07T04:27:27;7.30;;;3.60;;
75340;SDS011;64931;47.562;18.920;2022-12-07T04:29:55;5.40;;;3.10;;
75340;SDS011;64931;47.562;18.920;2022-12-07T04:32:23;5.70;;;3.20;;
75340;SDS011;64931;47.562;18.920;2022-12-07T04:34:56;5.10;;;3.10;;
75340;SDS011;64931;47.562;18.920;2022-12-07T04:37:26;5.90;;;3.40;;
75340;SDS011;64931;47.562;18.920;2022-12-07T04:40:07;4.20;;;2.10;;
75340;SDS011;64931;47.562;18.920;2022-12-07T04:42:42;5.00;;;2.50;;
75340;SDS011;64931;47.562;18.920;2022-12-07T04:45:08;9.00;;;6.20;;
75340;SDS011;64931;47.562;18.920;2022-12-07T04:47:36;8.00;;;4.60;;
75340;SDS011;64931;47.562;18.920;2022-12-07T04:50:05;6.00;;;3.40;;
75340;SDS011;64931;47.562;18.920;2022-12-07T04:52:31;5.90;;;2.70;;
75340;SDS011;64931;47.562;18.920;2022-12-07T04:54:58;4.70;;;2.60;;
75340;SDS011;64931;47.562;18.920;2022-12-07T04:57:26;7.20;;;4.30;;
75340;SDS011;64931;47.562;18.920;2022-12-07T05:00:10;6.40;;;3.30;;
75340;SDS011;64931;47.562;18.920;2022-12-07T05:03:00;6.60;;;3.50;;
75340;SDS011;64931;47.562;18.920;2022-12-07T05:05:42;6.20;;;3.80;;
75340;SDS011;64931;47.562;18.920;2022-12-07T05:08:07;7.50;;;4.80;;
75340;SDS011;64931;47.562;18.920;2022-12-07T05:10:35;7.20;;;4.30;;
75340;SDS011;64931;47.562;18.920;2022-12-07T05:13:03;6.50;;;3.50;;
75340;SDS011;64931;47.562;18.920;2022-12-07T05:15:36;6.30;;;3.40;;
75340;SDS011;64931;47.562;18.920;2022-12-07T05:18:03;5.60;;;3.10;;
75340;SDS011;64931;47.562;18.920;2022-12-07T05:20:29;6.90;;;4.00;;
75340;SDS011;64931;47.562;18.920;2022-12-07T05:22:57;6.60;;;4.00;;
75340;SDS011;64931;47.562;18.920;2022-12-07T05:25:26;6.70;;;3.80;;
75340;SDS011;64931;47.562;18.920;2022-12-07T05:28:04;7.60;;;3.90;;
75340;SDS011;64931;47.562;18.920;2022-12-07T05:30:30;9.50;;;5.50;;
75340;SDS011;64931;47.562;18.920;2022-12-07T05:32:56;10.20;;;5.40;;
75340;SDS011;64931;47.562;18.920;2022-12-07T05:35:22;8.80;;;5.50;;
75340;SDS011;64931;47.562;18.920;2022-12-07T05:40:16;9.00;;;5.30;;
75340;SDS011;64931;47.562;18.920;2022-12-07T05:42:44;8.40;;;4.80;;
75340;SDS011;64931;47.562;18.920;2022-12-07T05:45:13;9.70;;;5.60;;
75340;SDS011;64931;47.562;18.920;2022-12-07T05:47:38;11.60;;;5.80;;
75340;SDS011;64931;47.562;18.920;2022-12-07T05:50:04;9.30;;;5.90;;
75340;SDS011;64931;47.562;18.920;2022-12-07T05:52:33;10.80;;;6.20;;
75340;SDS011;64931;47.562;18.920;2022-12-07T05:55:01;10.30;;;5.60;;
75340;SDS011;64931;47.562;18.920;2022-12-07T05:57:32;11.00;;;7.10;;
75340;SDS011;64931;47.562;18.920;2022-12-07T05:59:59;11.50;;;7.20;;
75340;SDS011;64931;47.562;18.920;2022-12-07T06:02:32;9.80;;;6.10;;
75340;SDS011;64931;47.562;18.920;2022-12-07T06:04:57;12.40;;;7.00;;
75340;SDS011;64931;47.562;18.920;2022-12-07T06:07:23;12.20;;;8.50;;
75340;SDS011;64931;47.562;18.920;2022-12-07T06:09:48;12.10;;;8.40;;
75340;SDS011;64931;47.562;18.920;2022-12-07T06:12:26;13.50;;;8.70;;
75340;SDS011;64931;47.562;18.920;2022-12-07T06:15:14;13.90;;;8.90;;
75340;SDS011;64931;47.562;18.920;2022-12-07T06:17:47;15.50;;;10.10;;
75340;SDS011;64931;47.562;18.920;2022-12-07T06:20:20;14.60;;;9.10;;
75340;SDS011;64931;47.562;18.920;2022-12-07T06:23:05;16.50;;;9.70;;
75340;SDS011;64931;47.562;18.920;2022-12-07T06:32:39;16.30;;;10.60;;
75340;SDS011;64931;47.562;18.920;2022-12-07T06:38:31;21.30;;;11.00;;
75340;SDS011;64931;47.562;18.920;2022-12-07T06:41:07;16.40;;;10.30;;
75340;SDS011;64931;47.562;18.920;2022-12-07T06:43:42;15.90;;;10.50;;
75340;SDS011;64931;47.562;18.920;2022-12-07T06:46:55;18.30;;;12.20;;
75340;SDS011;64931;47.562;18.920;2022-12-07T06:53:18;16.20;;;10.60;;
75340;SDS011;64931;47.562;18.920;2022-12-07T06:59:31;16.50;;;11.10;;
75340;SDS011;64931;47.562;18.920;2022-12-07T07:02:30;19.60;;;12.80;;
75340;SDS011;64931;47.562;18.920;2022-12-07T07:05:55;18.70;;;12.30;;
75340;SDS011;64931;47.562;18.920;2022-12-07T07:08:37;17.30;;;10.40;;
75340;SDS011;64931;47.562;18.920;2022-12-07T07:18:00;19.30;;;11.40;;
75340;SDS011;64931;47.562;18.920;2022-12-07T07:21:09;18.00;;;11.10;;
75340;SDS011;64931;47.562;18.920;2022-12-07T07:27:11;28.40;;;17.90;;
75340;SDS011;64931;47.562;18.920;2022-12-07T07:29:54;23.30;;;15.90;;
75340;SDS011;64931;47.562;18.920;2022-12-07T07:33:01;25.80;;;15.50;;
75340;SDS011;64931;47.562;18.920;2022-12-07T07:41:48;19.70;;;11.10;;
75340;SDS011;64931;47.562;18.920;2022-12-07T07:44:24;20.20;;;13.30;;
75340;SDS011;64931;47.562;18.920;2022-12-07T07:47:07;21.50;;;13.50;;
75340;SDS011;64931;47.562;18.920;2022-12-07T07:50:19;18.80;;;12.30;;
75340;SDS011;64931;47.562;18.920;2022-12-07T07:52:57;21.40;;;13.60;;
75340;SDS011;64931;47.562;18.920;2022-12-07T07:55:28;19.10;;;12.90;;
75340;SDS011;64931;47.562;18.920;2022-12-07T07:57:57;20.20;;;13.60;;
75340;SDS011;64931;47.562;18.920;2022-12-07T08:00:35;18.70;;;12.60;;
75340;SDS011;64931;47.562;18.920;2022-12-07T08:03:27;20.50;;;13.00;;
75340;SDS011;64931;47.562;18.920;2022-12-07T08:05:52;19.30;;;12.50;;
75340;SDS011;64931;47.562;18.920;2022-12-07T08:08:28;17.20;;;10.90;;
75340;SDS011;64931;47.562;18.920;2022-12-07T08:14:22;19.60;;;12.90;;
75340;SDS011;64931;47.562;18.920;2022-12-07T08:17:10;19.20;;;11.80;;
75340;SDS011;64931;47.562;18.920;2022-12-07T08:19:46;18.10;;;11.80;;
75340;SDS011;64931;47.562;18.920;2022-12-07T08:22:29;18.30;;;11.50;;
75340;SDS011;64931;47.562;18.920;2022-12-07T08:25:26;15.50;;;9.80;;
75340;SDS011;64931;47.562;18.920;2022-12-07T08:28:14;16.30;;;10.90;;
75340;SDS011;64931;47.562;18.920;2022-12-07T08:34:10;16.10;;;11.00;;
75340;SDS011;64931;47.562;18.920;2022-12-07T08:36:43;16.70;;;10.90;;
75340;SDS011;64931;47.562;18.920;2022-12-07T08:39:40;14.90;;;10.50;;
75340;SDS011;64931;47.562;18.920;2022-12-07T08:42:19;14.70;;;10.50;;
75340;SDS011;64931;47.562;18.920;2022-12-07T08:44:57;14.70;;;10.30;;
75340;SDS011;64931;47.562;18.920;2022-12-07T08:48:04;14.10;;;9.60;;
75340;SDS011;64931;47.562;18.920;2022-12-07T08:50:35;12.40;;;7.90;;
75340;SDS011;64931;47.562;18.920;2022-12-07T08:53:09;13.20;;;8.90;;
75340;SDS011;64931;47.562;18.920;2022-12-07T08:55:34;13.20;;;9.10;;
75340;SDS011;64931;47.562;18.920;2022-12-07T08:58:02;14.20;;;9.30;;
75340;SDS011;64931;47.562;18.920;2022-12-07T09:00:33;14.90;;;10.30;;
75340;SDS011;64931;47.562;18.920;2022-12-07T09:03:01;14.60;;;9.80;;
75340;SDS011;64931;47.562;18.920;2022-12-07T09:08:32;15.40;;;9.50;;
75340;SDS011;64931;47.562;18.920;2022-12-07T09:11:21;13.20;;;9.10;;
75340;SDS011;64931;47.562;18.920;2022-12-07T09:13:46;14.00;;;9.40;;
75340;SDS011;64931;47.562;18.920;2022-12-07T09:16:12;12.20;;;8.30;;
75340;SDS011;64931;47.562;18.920;2022-12-07T09:18:42;12.70;;;7.80;;
75340;SDS011;64931;47.562;18.920;2022-12-07T09:21:18;9.70;;;6.70;;
75340;SDS011;64931;47.562;18.920;2022-12-07T09:23:46;12.30;;;8.10;;
75340;SDS011;64931;47.562;18.920;2022-12-07T09:26:34;12.00;;;8.00;;
75340;SDS011;64931;47.562;18.920;2022-12-07T09:29:02;9.20;;;5.50;;
75340;SDS011;64931;47.562;18.920;2022-12-07T09:31:31;9.90;;;6.50;;
75340;SDS011;64931;47.562;18.920;2022-12-07T09:34:06;8.40;;;6.60;;
75340;SDS011;64931;47.562;18.920;2022-12-07T09:36:34;8.00;;;5.50;;
75340;SDS011;64931;47.562;18.920;2022-12-07T09:39:00;8.60;;;5.80;;
75340;SDS011;64931;47.562;18.920;2022-12-07T09:41:28;9.40;;;6.60;;
75340;SDS011;64931;47.562;18.920;2022-12-07T09:44:04;9.10;;;6.10;;
75340;SDS011;64931;47.562;18.920;2022-12-07T09:46:42;8.40;;;5.30;;
75340;SDS011;64931;47.562;18.920;2022-12-07T09:49:36;9.20;;;5.60;;
75340;SDS011;64931;47.562;18.920;2022-12-07T09:52:19;9.40;;;5.60;;
75340;SDS011;64931;47.562;18.920;2022-12-07T09:54:49;9.40;;;5.70;;
75340;SDS011;64931;47.562;18.920;2022-12-07T09:57:15;9.30;;;5.40;;
75340;SDS011;64931;47.562;18.920;2022-12-07T09:59:41;7.80;;;4.90;;
75340;SDS011;64931;47.562;18.920;2022-12-07T10:07:43;7.50;;;4.70;;
75340;SDS011;64931;47.562;18.920;2022-12-07T10:10:17;9.70;;;6.60;;
75340;SDS011;64931;47.562;18.920;2022-12-07T10:13:02;10.70;;;6.20;;
75340;SDS011;64931;47.562;18.920;2022-12-07T10:18:20;9.10;;;5.60;;
75340;SDS011;64931;47.562;18.920;2022-12-07T10:24:01;9.40;;;6.00;;
75340;SDS011;64931;47.562;18.920;2022-12-07T10:26:36;9.80;;;7.20;;
75340;SDS011;64931;47.562;18.920;2022-12-07T10:31:39;9.40;;;6.70;;
75340;SDS011;64931;47.562;18.920;2022-12-07T10:34:08;10.20;;;6.60;;
75340;SDS011;64931;47.562;18.920;2022-12-07T10:36:52;9.10;;;5.70;;
75340;SDS011;64931;47.562;18.920;2022-12-07T10:39:22;9.60;;;6.50;;
75340;SDS011;64931;47.562;18.920;2022-12-07T10:42:01;10.00;;;7.00;;
75340;SDS011;64931;47.562;18.920;2022-12-07T10:44:32;10.50;;;7.30;;
75340;SDS011;64931;47.562;18.920;2022-12-07T10:47:03;10.50;;;7.20;;
75340;SDS011;64931;47.562;18.920;2022-12-07T10:55:08;9.90;;;7.00;;
75340;SDS011;64931;47.562;18.920;2022-12-07T11:00:52;9.00;;;6.50;;
75340;SDS011;64931;47.562;18.920;2022-12-07T11:12:12;11.30;;;8.00;;
75340;SDS011;64931;47.562;18.920;2022-12-07T11:17:18;10.90;;;8.00;;
75340;SDS011;64931;47.562;18.920;2022-12-07T11:22:28;12.10;;;8.50;;
75340;SDS011;64931;47.562;18.920;2022-12-07T11:25:00;11.40;;;7.50;;
75340;SDS011;64931;47.562;18.920;2022-12-07T11:30:14;10.00;;;6.60;;
75340;SDS011;64931;47.562;18.920;2022-12-07T11:38:55;10.10;;;7.20;;
75340;SDS011;64931;47.562;18.920;2022-12-07T11:41:24;10.80;;;8.30;;
75340;SDS011;64931;47.562;18.920;2022-12-07T11:44:03;10.30;;;7.00;;
75340;SDS011;64931;47.562;18.920;2022-12-07T11:46:41;14.30;;;7.50;;
75340;SDS011;64931;47.562;18.920;2022-12-07T11:52:36;12.60;;;8.30;;
75340;SDS011;64931;47.562;18.920;2022-12-07T11:55:39;12.10;;;8.60;;
75340;SDS011;64931;47.562;18.920;2022-12-07T12:03:45;7.90;;;4.90;;
75340;SDS011;64931;47.562;18.920;2022-12-07T12:06:26;8.10;;;5.70;;
75340;SDS011;64931;47.562;18.920;2022-12-07T12:11:46;8.30;;;6.60;;
75340;SDS011;64931;47.562;18.920;2022-12-07T12:14:22;9.50;;;7.20;;
75340;SDS011;64931;47.562;18.920;2022-12-07T12:22:34;8.30;;;6.60;;
75340;SDS011;64931;47.562;18.920;2022-12-07T12:25:04;9.60;;;6.80;;
75340;SDS011;64931;47.562;18.920;2022-12-07T12:29:58;8.70;;;6.30;;
75340;SDS011;64931;47.562;18.920;2022-12-07T12:35:21;9.50;;;7.10;;
75340;SDS011;64931;47.562;18.920;2022-12-07T12:40:53;8.30;;;5.70;;
75340;SDS011;64931;47.562;18.920;2022-12-07T12:51:43;9.30;;;6.30;;
75340;SDS011;64931;47.562;18.920;2022-12-07T13:08:21;12.50;;;8.00;;
75340;SDS011;64931;47.562;18.920;2022-12-07T13:13:24;11.10;;;7.50;;
75340;SDS011;64931;47.562;18.920;2022-12-07T13:15:53;12.40;;;8.20;;
75340;SDS011;64931;47.562;18.920;2022-12-07T13:23:38;12.30;;;7.70;;
75340;SDS011;64931;47.562;18.920;2022-12-07T13:28:49;9.90;;;6.20;;
75340;SDS011;64931;47.562;18.920;2022-12-07T13:31:32;12.90;;;8.10;;
75340;SDS011;64931;47.562;18.920;2022-12-07T13:33:59;11.40;;;7.40;;
75340;SDS011;64931;47.562;18.920;2022-12-07T13:36:26;9.70;;;6.20;;
75340;SDS011;64931;47.562;18.920;2022-12-07T13:41:41;12.40;;;7.80;;
75340;SDS011;64931;47.562;18.920;2022-12-07T13:49:19;13.30;;;9.00;;
75340;SDS011;64931;47.562;18.920;2022-12-07T13:51:55;11.80;;;8.30;;
75340;SDS011;64931;47.562;18.920;2022-12-07T13:54:43;13.30;;;8.10;;
75340;SDS011;64931;47.562;18.920;2022-12-07T13:57:13;13.40;;;7.80;;
75340;SDS011;64931;47.562;18.920;2022-12-07T13:59:40;11.70;;;7.20;;
75340;SDS011;64931;47.562;18.920;2022-12-07T14:05:26;11.40;;;7.00;;
75340;SDS011;64931;47.562;18.920;2022-12-07T14:07:59;12.30;;;7.30;;
75340;SDS011;64931;47.562;18.920;2022-12-07T14:12:58;12.40;;;7.40;;
75340;SDS011;64931;47.562;18.920;2022-12-07T14:15:32;11.30;;;7.00;;
75340;SDS011;64931;47.562;18.920;2022-12-07T14:18:02;11.50;;;7.40;;
75340;SDS011;64931;47.562;18.920;2022-12-07T14:20:32;10.80;;;6.70;;
75340;SDS011;64931;47.562;18.920;2022-12-07T14:23:01;11.90;;;7.00;;
75340;SDS011;64931;47.562;18.920;2022-12-07T14:36:16;10.10;;;7.00;;
75340;SDS011;64931;47.562;18.920;2022-12-07T14:38:42;11.70;;;7.50;;
75340;SDS011;64931;47.562;18.920;2022-12-07T14:41:14;11.10;;;6.60;;
75340;SDS011;64931;47.562;18.920;2022-12-07T14:44:00;8.90;;;5.70;;
75340;SDS011;64931;47.562;18.920;2022-12-07T14:46:26;11.20;;;6.30;;
75340;SDS011;64931;47.562;18.920;2022-12-07T14:48:51;10.90;;;5.50;;
75340;SDS011;64931;47.562;18.920;2022-12-07T14:51:17;9.10;;;5.70;;
75340;SDS011;64931;47.562;18.920;2022-12-07T14:53:44;10.10;;;6.00;;
75340;SDS011;64931;47.562;18.920;2022-12-07T14:56:12;12.30;;;7.30;;
75340;SDS011;64931;47.562;18.920;2022-12-07T14:58:37;11.10;;;6.40;;
75340;SDS011;64931;47.562;18.920;2022-12-07T15:01:02;10.50;;;6.00;;
75340;SDS011;64931;47.562;18.920;2022-12-07T15:03:28;10.70;;;5.80;;
75340;SDS011;64931;47.562;18.920;2022-12-07T15:05:54;11.50;;;6.30;;
75340;SDS011;64931;47.562;18.920;2022-12-07T15:08:23;11.30;;;6.20;;
75340;SDS011;64931;47.562;18.920;2022-12-07T15:13:13;10.90;;;5.70;;
75340;SDS011;64931;47.562;18.920;2022-12-07T15:16:01;11.20;;;6.70;;
75340;SDS011;64931;47.562;18.920;2022-12-07T15:18:40;9.80;;;5.80;;
75340;SDS011;64931;47.562;18.920;2022-12-07T15:21:09;10.10;;;6.00;;
75340;SDS011;64931;47.562;18.920;2022-12-07T15:23:37;10.40;;;5.70;;
75340;SDS011;64931;47.562;18.920;2022-12-07T15:26:03;10.00;;;5.50;;
75340;SDS011;64931;47.562;18.920;2022-12-07T15:28:28;10.20;;;6.10;;
75340;SDS011;64931;47.562;18.920;2022-12-07T15:30:53;10.90;;;6.30;;
75340;SDS011;64931;47.562;18.920;2022-12-07T15:33:19;12.00;;;5.90;;
75340;SDS011;64931;47.562;18.920;2022-12-07T15:35:47;10.20;;;5.40;;
75340;SDS011;64931;47.562;18.920;2022-12-07T15:38:19;10.00;;;5.80;;
75340;SDS011;64931;47.562;18.920;2022-12-07T15:43:12;11.60;;;5.40;;
75340;SDS011;64931;47.562;18.920;2022-12-07T15:45:56;10.30;;;6.00;;
75340;SDS011;64931;47.562;18.920;2022-12-07T15:48:25;12.00;;;6.70;;
75340;SDS011;64931;47.562;18.920;2022-12-07T15:50:50;11.70;;;6.30;;
75340;SDS011;64931;47.562;18.920;2022-12-07T15:53:16;14.40;;;7.10;;
75340;SDS011;64931;47.562;18.920;2022-12-07T15:55:42;12.00;;;6.50;;
75340;SDS011;64931;47.562;18.920;2022-12-07T15:58:07;14.70;;;7.90;;
75340;SDS011;64931;47.562;18.920;2022-12-07T16:00:32;14.30;;;8.00;;
75340;SDS011;64931;47.562;18.920;2022-12-07T16:02:58;11.30;;;6.80;;
75340;SDS011;64931;47.562;18.920;2022-12-07T16:05:25;12.60;;;6.90;;
75340;SDS011;64931;47.562;18.920;2022-12-07T16:08:00;13.70;;;7.70;;
75340;SDS011;64931;47.562;18.920;2022-12-07T16:10:25;12.80;;;6.90;;
75340;SDS011;64931;47.562;18.920;2022-12-07T16:12:51;17.10;;;8.60;;
75340;SDS011;64931;47.562;18.920;2022-12-07T16:15:25;15.10;;;8.30;;
75340;SDS011;64931;47.562;18.920;2022-12-07T16:18:05;16.70;;;9.40;;
75340;SDS011;64931;47.562;18.920;2022-12-07T16:20:30;14.80;;;8.50;;
75340;SDS011;64931;47.562;18.920;2022-12-07T16:22:56;14.50;;;7.90;;
75340;SDS011;64931;47.562;18.920;2022-12-07T16:25:21;22.60;;;13.00;;
75340;SDS011;64931;47.562;18.920;2022-12-07T16:27:47;18.10;;;10.40;;
75340;SDS011;64931;47.562;18.920;2022-12-07T16:30:15;16.30;;;9.10;;
75340;SDS011;64931;47.562;18.920;2022-12-07T16:32:43;15.20;;;9.20;;
75340;SDS011;64931;47.562;18.920;2022-12-07T16:35:09;17.80;;;9.30;;
75340;SDS011;64931;47.562;18.920;2022-12-07T16:37:35;19.10;;;9.80;;
75340;SDS011;64931;47.562;18.920;2022-12-07T16:40:00;15.80;;;8.50;;
75340;SDS011;64931;47.562;18.920;2022-12-07T16:42:26;14.60;;;8.10;;
75340;SDS011;64931;47.562;18.920;2022-12-07T16:44:51;15.30;;;8.10;;
75340;SDS011;64931;47.562;18.920;2022-12-07T16:47:17;12.60;;;6.70;;
75340;SDS011;64931;47.562;18.920;2022-12-07T16:49:42;13.60;;;7.20;;
75340;SDS011;64931;47.562;18.920;2022-12-07T16:52:08;14.20;;;7.90;;
75340;SDS011;64931;47.562;18.920;2022-12-07T16:54:33;14.00;;;6.90;;
75340;SDS011;64931;47.562;18.920;2022-12-07T16:56:59;12.20;;;7.00;;
75340;SDS011;64931;47.562;18.920;2022-12-07T16:59:25;13.50;;;6.80;;
75340;SDS011;64931;47.562;18.920;2022-12-07T17:01:50;11.60;;;6.60;;
75340;SDS011;64931;47.562;18.920;2022-12-07T17:04:16;11.40;;;5.80;;
75340;SDS011;64931;47.562;18.920;2022-12-07T17:06:42;10.90;;;5.80;;
75340;SDS011;64931;47.562;18.920;2022-12-07T17:09:07;9.40;;;5.30;;
75340;SDS011;64931;47.562;18.920;2022-12-07T17:11:35;10.60;;;5.10;;
75340;SDS011;64931;47.562;18.920;2022-12-07T17:14:00;10.40;;;5.50;;
75340;SDS011;64931;47.562;18.920;2022-12-07T17:16:45;9.70;;;5.20;;
75340;SDS011;64931;47.562;18.920;2022-12-07T17:19:12;9.00;;;5.20;;
75340;SDS011;64931;47.562;18.920;2022-12-07T17:21:39;9.20;;;5.00;;
75340;SDS011;64931;47.562;18.920;2022-12-07T17:24:06;9.90;;;5.10;;
75340;SDS011;64931;47.562;18.920;2022-12-07T17:26:33;10.40;;;6.10;;
75340;SDS011;64931;47.562;18.920;2022-12-07T17:28:59;8.70;;;5.10;;
75340;SDS011;64931;47.562;18.920;2022-12-07T17:31:24;7.90;;;4.50;;
75340;SDS011;64931;47.562;18.920;2022-12-07T17:33:50;10.50;;;5.50;;
75340;SDS011;64931;47.562;18.920;2022-12-07T17:36:20;12.50;;;5.90;;
75340;SDS011;64931;47.562;18.920;2022-12-07T17:38:48;7.80;;;4.50;;
75340;SDS011;64931;47.562;18.920;2022-12-07T17:41:15;9.90;;;5.40;;
75340;SDS011;64931;47.562;18.920;2022-12-07T17:44:02;10.00;;;5.40;;
75340;SDS011;64931;47.562;18.920;2022-12-07T17:46:29;8.00;;;4.50;;
75340;SDS011;64931;47.562;18.920;2022-12-07T17:48:55;7.60;;;4.00;;
75340;SDS011;64931;47.562;18.920;2022-12-07T17:51:21;9.10;;;4.70;;
75340;SDS011;64931;47.562;18.920;2022-12-07T17:54:05;9.40;;;5.10;;
75340;SDS011;64931;47.562;18.920;2022-12-07T17:56:30;7.70;;;4.70;;
75340;SDS011;64931;47.562;18.920;2022-12-07T17:58:56;8.80;;;4.50;;
75340;SDS011;64931;47.562;18.920;2022-12-07T18:01:21;9.30;;;5.10;;
75340;SDS011;64931;47.562;18.920;2022-12-07T18:03:47;9.50;;;5.80;;
75340;SDS011;64931;47.562;18.920;2022-12-07T18:06:12;9.90;;;5.40;;
75340;SDS011;64931;47.562;18.920;2022-12-07T18:08:38;9.50;;;5.20;;
75340;SDS011;64931;47.562;18.920;2022-12-07T18:11:04;9.70;;;4.80;;
75340;SDS011;64931;47.562;18.920;2022-12-07T18:13:31;11.30;;;6.20;;
75340;SDS011;64931;47.562;18.920;2022-12-07T18:16:00;9.70;;;5.60;;
75340;SDS011;64931;47.562;18.920;2022-12-07T18:18:27;10.80;;;5.80;;
75340;SDS011;64931;47.562;18.920;2022-12-07T18:20:52;10.60;;;6.20;;
75340;SDS011;64931;47.562;18.920;2022-12-07T18:23:17;11.70;;;7.20;;
75340;SDS011;64931;47.562;18.920;2022-12-07T18:25:50;16.60;;;11.20;;
75340;SDS011;64931;47.562;18.920;2022-12-07T18:28:16;13.00;;;8.00;;